Time;durP1;ratioP1;P1;durP2;ratioP2;P2;SDS_P1;SDS_P2;PMS_P1;PMS_P2;Temp;Humidity;BMP_temperature;BMP_pressure;BME280_temperature;BME280_humidity;BME280_pressure;Samples;Min_cycle;Max_cycle;Signal;HPM_P1;HPM_P2
2021/01/24 00:00:28;;;;;;;17.00;12.90;;;22.30;31.20;;;;;;5055783;28;20051;-54
2021/01/24 00:02:53;;;;;;;15.90;13.10;;;22.30;31.20;;;;;;5049927;28;20029;-53
2021/01/24 00:05:20;;;;;;;15.23;12.52;;;22.30;31.20;;;;;;5055826;28;20032;-57
2021/01/24 00:07:46;;;;;;;16.38;12.48;;;22.30;31.20;;;;;;5048376;28;20459;-54
2021/01/24 00:10:12;;;;;;;16.42;13.05;;;22.30;31.20;;;;;;5054685;28;20037;-56
2021/01/24 00:12:39;;;;;;;16.30;13.00;;;22.20;31.20;;;;;;5053416;28;20029;-53
2021/01/24 00:15:07;;;;;;;16.65;13.05;;;22.20;31.20;;;;;;5055214;28;20037;-54
2021/01/24 00:17:33;;;;;;;14.07;11.55;;;22.20;31.30;;;;;;5054418;28;20440;-51
2021/01/24 00:20:00;;;;;;;13.15;11.27;;;22.20;31.30;;;;;;5055243;28;20029;-53
2021/01/24 00:22:28;;;;;;;15.18;11.98;;;22.20;31.20;;;;;;5054822;28;20122;-52
2021/01/24 00:24:55;;;;;;;13.40;11.10;;;22.20;31.20;;;;;;5054847;28;20047;-52
2021/01/24 00:27:21;;;;;;;13.18;11.70;;;22.20;31.30;;;;;;5054437;28;20029;-52
2021/01/24 00:29:47;;;;;;;15.77;11.25;;;22.20;31.30;;;;;;5055409;28;20025;-51
2021/01/24 00:32:13;;;;;;;12.93;10.43;;;22.20;31.30;;;;;;5053066;28;20043;-52
2021/01/24 00:34:40;;;;;;;13.02;10.48;;;22.10;31.20;;;;;;5054118;28;20052;-52
2021/01/24 00:37:07;;;;;;;13.52;10.10;;;22.10;31.30;;;;;;5052848;28;20113;-54
2021/01/24 00:39:32;;;;;;;13.13;10.73;;;22.10;31.20;;;;;;5053769;28;20420;-53
2021/01/24 00:41:58;;;;;;;14.02;10.40;;;22.10;31.20;;;;;;5054835;28;20112;-55
2021/01/24 00:44:24;;;;;;;10.68;9.40;;;22.10;31.20;;;;;;5036161;28;20060;-53
2021/01/24 00:46:50;;;;;;;12.15;9.55;;;22.10;31.20;;;;;;5021350;28;20049;-48
2021/01/24 00:49:16;;;;;;;13.15;9.52;;;22.10;31.20;;;;;;5054840;28;20447;-53
2021/01/24 00:51:42;;;;;;;12.07;9.57;;;22.10;31.20;;;;;;5053337;28;20290;-52
2021/01/24 00:54:09;;;;;;;11.27;8.85;;;22.00;31.10;;;;;;5037150;28;20522;-53
2021/01/24 00:56:34;;;;;;;10.73;8.63;;;22.00;31.10;;;;;;5033350;28;20033;-50
2021/01/24 00:59:00;;;;;;;11.80;9.35;;;22.00;31.10;;;;;;5034948;28;20422;-56
2021/01/24 01:01:26;;;;;;;10.52;8.48;;;22.00;31.10;;;;;;5049156;28;20227;-53
2021/01/24 01:03:52;;;;;;;10.48;8.50;;;22.00;31.10;;;;;;5054141;28;20028;-55
2021/01/24 01:06:17;;;;;;;10.45;8.60;;;22.00;31.10;;;;;;5046916;28;20040;-53
2021/01/24 01:08:43;;;;;;;9.82;8.60;;;22.00;31.10;;;;;;5041080;28;20082;-58
2021/01/24 01:11:09;;;;;;;11.13;8.65;;;22.00;31.10;;;;;;5042224;28;20025;-53
2021/01/24 01:13:35;;;;;;;10.00;8.20;;;22.00;31.10;;;;;;5054121;28;20095;-58
2021/01/24 01:16:01;;;;;;;10.45;8.13;;;22.00;31.10;;;;;;5043804;28;20029;-56
2021/01/24 01:18:31;;;;;;;11.55;8.45;;;22.00;31.10;;;;;;5034804;28;20037;-50
2021/01/24 01:20:57;;;;;;;9.00;7.28;;;21.90;31.10;;;;;;5035737;28;20094;-55
2021/01/24 01:23:23;;;;;;;9.20;7.22;;;22.00;31.20;;;;;;5050863;28;20033;-53
2021/01/24 01:25:53;;;;;;;8.55;7.45;;;21.90;31.10;;;;;;5026359;28;20028;-52
2021/01/24 01:28:19;;;;;;;12.20;8.32;;;21.90;31.10;;;;;;5053426;28;20444;-56
2021/01/24 01:30:45;;;;;;;9.95;8.05;;;21.90;31.10;;;;;;5052887;28;20040;-55
2021/01/24 01:33:11;;;;;;;8.77;6.90;;;21.90;31.10;;;;;;5052735;28;20482;-51
2021/01/24 01:35:37;;;;;;;9.52;7.63;;;21.90;31.10;;;;;;5045107;28;20045;-52
2021/01/24 01:38:03;;;;;;;9.75;7.47;;;21.90;31.10;;;;;;5048332;28;20056;-53
2021/01/24 01:40:29;;;;;;;9.80;7.30;;;21.90;31.10;;;;;;5052881;28;20057;-53
2021/01/24 01:42:58;;;;;;;10.57;7.22;;;21.90;31.10;;;;;;5054238;28;20095;-49
2021/01/24 01:45:24;;;;;;;9.15;6.85;;;21.80;31.10;;;;;;5053059;28;20028;-55
2021/01/24 01:47:52;;;;;;;9.15;7.15;;;21.80;31.10;;;;;;5052459;28;20033;-58
2021/01/24 01:50:19;;;;;;;10.38;7.63;;;21.80;31.10;;;;;;5051966;28;20123;-55
2021/01/24 01:52:46;;;;;;;9.73;7.38;;;21.80;31.10;;;;;;5054193;28;20040;-53
2021/01/24 01:55:13;;;;;;;8.60;7.15;;;21.80;31.10;;;;;;5035128;28;20091;-53
2021/01/24 01:57:39;;;;;;;8.20;6.45;;;21.80;31.10;;;;;;5034441;28;20034;-51
2021/01/24 02:00:06;;;;;;;9.68;6.80;;;21.80;31.10;;;;;;5028958;28;20041;-54
2021/01/24 02:02:49;;;;;;;8.52;6.30;;;21.80;31.10;;;;;;5054278;28;20041;-55
2021/01/24 02:05:43;;;;;;;7.55;6.43;;;21.80;31.10;;;;;;5048073;28;20033;-51
2021/01/24 02:08:20;;;;;;;9.55;6.93;;;21.80;31.10;;;;;;5053268;28;20037;-53
2021/01/24 02:10:57;;;;;;;7.38;5.80;;;21.70;31.10;;;;;;5034310;28;20488;-53
2021/01/24 02:13:32;;;;;;;7.35;5.93;;;21.70;31.10;;;;;;5050682;28;20530;-56
2021/01/24 02:16:00;;;;;;;6.68;5.43;;;21.70;31.10;;;;;;5054143;28;20029;-56
2021/01/24 02:18:30;;;;;;;7.38;5.68;;;21.70;31.10;;;;;;5051093;28;20460;-52
2021/01/24 02:21:35;;;;;;;7.22;5.50;;;21.70;31.10;;;;;;5034138;28;20041;-51
2021/01/24 02:24:08;;;;;;;8.25;5.70;;;21.70;31.10;;;;;;5040170;28;20041;-53
2021/01/24 02:26:48;;;;;;;7.95;6.00;;;21.70;31.10;;;;;;5035946;28;20412;-58
2021/01/24 02:29:13;;;;;;;7.80;5.45;;;21.70;31.10;;;;;;5042437;28;20029;-53
2021/01/24 02:31:41;;;;;;;6.72;5.25;;;21.70;31.10;;;;;;5035159;28;20360;-50
2021/01/24 02:34:09;;;;;;;9.32;5.78;;;21.70;31.10;;;;;;5052545;28;20060;-55
2021/01/24 02:36:37;;;;;;;6.80;4.78;;;21.70;31.10;;;;;;5037168;28;20043;-58
2021/01/24 02:39:05;;;;;;;6.45;5.07;;;21.70;31.10;;;;;;5051066;28;20029;-53
2021/01/24 02:41:32;;;;;;;6.03;4.70;;;21.70;31.10;;;;;;5054969;28;20041;-56
2021/01/24 02:43:59;;;;;;;6.80;4.95;;;21.70;31.10;;;;;;5056629;28;20044;-58
2021/01/24 02:46:25;;;;;;;6.05;5.15;;;21.60;31.10;;;;;;5030528;28;20384;-51
2021/01/24 02:48:53;;;;;;;5.90;4.85;;;21.60;31.10;;;;;;5054701;28;20026;-52
2021/01/24 02:51:20;;;;;;;7.38;5.18;;;21.60;31.10;;;;;;5056836;28;20037;-52
2021/01/24 02:53:48;;;;;;;7.05;4.78;;;21.60;31.10;;;;;;5054725;28;20135;-54
2021/01/24 02:56:15;;;;;;;5.55;4.55;;;21.60;31.10;;;;;;5057269;28;20039;-54
2021/01/24 02:58:42;;;;;;;5.32;4.20;;;21.60;31.10;;;;;;5048711;28;20091;-54
2021/01/24 03:01:07;;;;;;;6.13;4.55;;;21.60;31.10;;;;;;5037223;28;20448;-54
2021/01/24 03:03:33;;;;;;;5.05;4.18;;;21.60;31.10;;;;;;5055241;28;20107;-53
2021/01/24 03:05:59;;;;;;;4.88;3.80;;;21.60;31.70;;;;;;5056636;28;20033;-52
2021/01/24 03:08:25;;;;;;;5.75;4.10;;;21.50;31.00;;;;;;5050483;28;20037;-52
2021/01/24 03:10:51;;;;;;;5.43;4.18;;;21.50;31.00;;;;;;5021840;28;20437;-53
2021/01/24 03:13:20;;;;;;;5.55;4.07;;;21.50;31.00;;;;;;5056389;28;20094;-51
2021/01/24 03:15:47;;;;;;;4.25;3.58;;;21.50;31.10;;;;;;5056327;28;20025;-55
2021/01/24 03:18:19;;;;;;;5.55;3.67;;;21.50;31.00;;;;;;5053200;28;20033;-56
2021/01/24 03:20:48;;;;;;;4.68;3.70;;;21.50;31.00;;;;;;5037362;28;20033;-56
2021/01/24 03:23:14;;;;;;;5.22;3.65;;;21.50;31.70;;;;;;5054882;28;20455;-55
2021/01/24 03:25:42;;;;;;;4.72;3.75;;;21.50;31.10;;;;;;5056635;28;20335;-57
2021/01/24 03:28:07;;;;;;;4.97;3.75;;;21.40;31.00;;;;;;5053860;28;20024;-51
2021/01/24 03:30:34;;;;;;;5.05;3.70;;;21.50;31.10;;;;;;5038295;28;20364;-53
2021/01/24 03:33:01;;;;;;;5.45;3.60;;;21.40;31.10;;;;;;5054680;28;20051;-57
2021/01/24 03:35:27;;;;;;;6.13;4.32;;;21.40;31.10;;;;;;5036716;28;20373;-51
2021/01/24 03:37:53;;;;;;;3.95;3.20;;;21.40;31.10;;;;;;5055551;28;20033;-53
2021/01/24 03:40:18;;;;;;;5.00;3.45;;;21.40;31.10;;;;;;5056026;28;20437;-51
2021/01/24 03:42:44;;;;;;;6.60;3.85;;;21.40;31.10;;;;;;5055480;28;20032;-56
2021/01/24 03:45:11;;;;;;;4.68;3.55;;;21.40;31.10;;;;;;5037595;28;20029;-54
2021/01/24 03:47:36;;;;;;;4.90;3.70;;;21.40;31.10;;;;;;5052926;28;20039;-52
2021/01/24 03:50:04;;;;;;;5.07;3.65;;;21.40;31.10;;;;;;5055344;28;20037;-57
2021/01/24 03:52:30;;;;;;;4.10;3.38;;;21.40;31.10;;;;;;5054932;28;20040;-52
2021/01/24 03:54:56;;;;;;;5.30;3.80;;;21.40;31.10;;;;;;5055897;28;20037;-55
2021/01/24 03:57:22;;;;;;;5.80;3.88;;;21.40;31.10;;;;;;5046594;28;20037;-53
2021/01/24 03:59:51;;;;;;;4.00;3.08;;;21.40;31.10;;;;;;5050259;28;20028;-55
2021/01/24 04:02:18;;;;;;;4.55;3.60;;;21.40;31.10;;;;;;5053481;28;20036;-52
2021/01/24 04:04:44;;;;;;;3.78;2.80;;;21.40;31.10;;;;;;5055462;28;20036;-53
2021/01/24 04:07:11;;;;;;;4.38;3.40;;;21.30;31.00;;;;;;5054902;28;20036;-54
2021/01/24 04:09:37;;;;;;;4.78;3.45;;;21.30;31.10;;;;;;5042705;28;20164;-53
2021/01/24 04:12:02;;;;;;;4.70;3.72;;;21.40;31.10;;;;;;5048342;28;20116;-55
2021/01/24 04:14:28;;;;;;;3.55;3.03;;;21.30;31.10;;;;;;5055810;28;20051;-55
2021/01/24 04:16:54;;;;;;;4.28;3.15;;;21.30;31.10;;;;;;5053456;28;20435;-54
2021/01/24 04:19:20;;;;;;;3.50;3.20;;;21.30;31.10;;;;;;5036174;28;20048;-53
2021/01/24 04:21:45;;;;;;;4.65;3.20;;;21.30;31.10;;;;;;5049270;28;20032;-54
2021/01/24 04:24:11;;;;;;;3.90;2.97;;;21.30;31.10;;;;;;5035854;28;20471;-54
2021/01/24 04:26:37;;;;;;;4.22;3.15;;;21.30;31.10;;;;;;5048150;28;20444;-52
2021/01/24 04:29:03;;;;;;;4.88;3.72;;;21.30;31.10;;;;;;5042112;28;20403;-49
2021/01/24 04:31:29;;;;;;;4.00;2.92;;;21.30;31.10;;;;;;5054514;28;20036;-50
2021/01/24 04:33:55;;;;;;;4.45;3.40;;;21.30;31.10;;;;;;5055234;28;20119;-53
2021/01/24 04:36:20;;;;;;;4.13;3.08;;;21.30;31.20;;;;;;5052332;28;20094;-52
2021/01/24 04:38:46;;;;;;;4.18;3.00;;;21.30;31.20;;;;;;5055483;28;20048;-52
2021/01/24 04:41:13;;;;;;;4.78;3.10;;;21.20;31.10;;;;;;5054390;28;20127;-56
2021/01/24 04:43:39;;;;;;;4.43;3.13;;;21.20;31.10;;;;;;5055036;28;20064;-52
2021/01/24 04:46:06;;;;;;;3.15;2.60;;;21.20;31.10;;;;;;5053911;28;20325;-57
2021/01/24 04:48:32;;;;;;;4.60;3.25;;;21.20;31.10;;;;;;5054566;28;20048;-52
2021/01/24 04:50:58;;;;;;;3.83;2.78;;;21.20;31.10;;;;;;5054239;28;20043;-53
2021/01/24 04:53:24;;;;;;;2.70;2.45;;;21.20;31.10;;;;;;5054761;28;20037;-53
2021/01/24 04:55:50;;;;;;;3.95;2.85;;;21.20;31.10;;;;;;5053809;28;20410;-56
2021/01/24 04:58:20;;;;;;;3.15;2.53;;;21.20;31.10;;;;;;5054066;28;20037;-52
2021/01/24 05:00:46;;;;;;;3.63;2.95;;;21.20;31.10;;;;;;5048252;28;20044;-54
2021/01/24 05:03:14;;;;;;;3.17;2.65;;;21.20;31.10;;;;;;5035334;28;20108;-54
2021/01/24 05:05:39;;;;;;;3.95;2.80;;;21.20;31.80;;;;;;5045698;28;20033;-54
2021/01/24 05:08:08;;;;;;;3.97;2.92;;;21.20;31.10;;;;;;5034791;28;20361;-54
2021/01/24 05:10:34;;;;;;;4.15;2.88;;;21.20;31.10;;;;;;5049655;28;20073;-53
2021/01/24 05:13:00;;;;;;;3.63;2.70;;;21.20;31.10;;;;;;5054244;28;20123;-57
2021/01/24 05:15:27;;;;;;;3.00;2.45;;;21.10;31.10;;;;;;5035487;28;20030;-50
2021/01/24 05:17:55;;;;;;;2.65;2.40;;;21.10;31.10;;;;;;5054665;28;20359;-55
2021/01/24 05:20:26;;;;;;;4.20;2.45;;;21.10;31.10;;;;;;5053185;28;20035;-56
2021/01/24 05:22:54;;;;;;;3.17;2.42;;;21.20;31.20;;;;;;5054151;28;20367;-53
2021/01/24 05:25:26;;;;;;;3.25;2.63;;;21.10;31.10;;;;;;5053041;28;20344;-56
2021/01/24 05:27:52;;;;;;;2.72;2.30;;;21.10;31.20;;;;;;5036776;28;20069;-53
2021/01/24 05:30:28;;;;;;;3.83;2.63;;;21.10;31.20;;;;;;5035593;28;20352;-58
2021/01/24 05:32:56;;;;;;;5.07;2.60;;;21.10;31.30;;;;;;5053978;28;20060;-55
2021/01/24 05:35:22;;;;;;;3.03;2.30;;;21.10;31.20;;;;;;5051387;28;20288;-54
2021/01/24 05:37:48;;;;;;;2.92;2.10;;;21.10;31.20;;;;;;5016867;28;20113;-52
2021/01/24 05:40:14;;;;;;;3.10;2.30;;;21.10;31.20;;;;;;5043339;28;20180;-55
2021/01/24 05:42:41;;;;;;;3.05;2.20;;;21.10;31.20;;;;;;5054232;28;20025;-50
2021/01/24 05:45:14;;;;;;;3.17;2.20;;;21.10;31.30;;;;;;5046893;28;20041;-51
2021/01/24 05:47:45;;;;;;;2.80;2.33;;;21.00;31.30;;;;;;5034419;28;20132;-52
2021/01/24 05:50:12;;;;;;;2.72;2.05;;;21.10;31.40;;;;;;5048483;28;20112;-55
2021/01/24 05:52:40;;;;;;;2.72;2.13;;;21.10;31.30;;;;;;5054163;28;20037;-52
2021/01/24 05:55:07;;;;;;;3.47;2.38;;;21.00;31.20;;;;;;5046695;28;20351;-51
2021/01/24 05:57:39;;;;;;;2.85;2.05;;;21.00;31.30;;;;;;5052916;28;20360;-54
2021/01/24 06:00:06;;;;;;;2.78;2.00;;;21.00;31.20;;;;;;5051439;28;20078;-51
2021/01/24 06:02:33;;;;;;;3.13;2.50;;;21.00;31.30;;;;;;5053502;28;20440;-52
2021/01/24 06:04:59;;;;;;;3.50;2.47;;;21.00;31.30;;;;;;5052732;28;20025;-54
2021/01/24 06:07:25;;;;;;;2.72;2.17;;;21.00;31.40;;;;;;5036887;28;20041;-55
2021/01/24 06:09:51;;;;;;;3.28;2.15;;;21.00;32.10;;;;;;5053761;28;20047;-52
2021/01/24 06:12:22;;;;;;;2.03;1.60;;;21.00;31.40;;;;;;5058272;28;20040;-55
2021/01/24 06:14:50;;;;;;;2.28;1.90;;;21.00;31.40;;;;;;5056242;28;20364;-55
2021/01/24 06:17:29;;;;;;;2.75;1.92;;;21.00;31.40;;;;;;5041497;28;20112;-51
2021/01/24 06:20:00;;;;;;;3.08;2.00;;;21.00;31.40;;;;;;5057165;28;20032;-54
2021/01/24 06:22:32;;;;;;;2.45;1.77;;;20.90;31.30;;;;;;5057383;28;20407;-54
2021/01/24 06:25:02;;;;;;;2.42;1.75;;;21.00;31.40;;;;;;5057187;28;20104;-55
2021/01/24 06:27:37;;;;;;;2.38;1.80;;;20.90;31.40;;;;;;5054145;28;20441;-56
2021/01/24 06:30:07;;;;;;;2.85;2.10;;;20.90;31.40;;;;;;5056996;28;20043;-48
2021/01/24 06:32:33;;;;;;;2.55;1.75;;;20.90;31.40;;;;;;5056990;28;20036;-52
2021/01/24 06:35:22;;;;;;;2.42;1.60;;;20.90;31.40;;;;;;5050439;28;20346;-52
2021/01/24 06:37:57;;;;;;;2.25;1.60;;;20.90;31.40;;;;;;5054742;28;20040;-54
2021/01/24 06:40:27;;;;;;;2.63;1.60;;;20.90;31.40;;;;;;5052626;28;20031;-50
2021/01/24 06:43:01;;;;;;;2.55;1.60;;;20.90;31.40;;;;;;5056983;28;20348;-54
2021/01/24 06:45:27;;;;;;;1.83;1.60;;;20.90;31.50;;;;;;5051792;28;20388;-55
2021/01/24 06:47:54;;;;;;;1.70;1.48;;;20.90;31.40;;;;;;5056818;28;20024;-50
2021/01/24 06:50:49;;;;;;;2.83;1.90;;;20.90;31.40;;;;;;5056329;28;20459;-55
2021/01/24 06:53:18;;;;;;;1.92;1.45;;;20.80;31.40;;;;;;5057011;28;20033;-52
2021/01/24 06:55:58;;;;;;;1.77;1.40;;;20.90;31.40;;;;;;5054237;28;20094;-59
2021/01/24 06:58:28;;;;;;;1.65;1.35;;;20.90;31.40;;;;;;5034881;28;20043;-53
2021/01/24 07:01:19;;;;;;;1.40;1.30;;;20.90;31.40;;;;;;5053525;28;20029;-51
2021/01/24 07:03:45;;;;;;;1.88;1.40;;;20.80;31.40;;;;;;5041023;28;20049;-53
2021/01/24 07:06:31;;;;;;;2.65;1.40;;;20.80;31.40;;;;;;5040302;28;20095;-52
2021/01/24 07:08:57;;;;;;;2.65;1.80;;;20.80;31.40;;;;;;5056205;28;20041;-55
2021/01/24 07:12:00;;;;;;;1.55;1.15;;;20.80;31.40;;;;;;5050326;28;20029;-52
2021/01/24 07:14:35;;;;;;;1.63;1.42;;;20.80;31.50;;;;;;5036843;28;20037;-53
2021/01/24 07:17:07;;;;;;;1.45;1.35;;;20.80;31.50;;;;;;5046079;28;20438;-54
2021/01/24 07:19:50;;;;;;;2.35;1.30;;;20.80;31.50;;;;;;5055534;28;20043;-53
2021/01/24 07:22:21;;;;;;;1.55;1.10;;;20.80;31.50;;;;;;5054229;28;20044;-49
2021/01/24 07:24:48;;;;;;;1.98;1.10;;;20.80;31.60;;;;;;5056237;28;20468;-53
2021/01/24 07:27:16;;;;;;;1.98;1.40;;;20.80;31.60;;;;;;5055293;28;20021;-53
2021/01/24 07:29:43;;;;;;;2.25;1.50;;;20.80;31.60;;;;;;5050526;28;20403;-56
2021/01/24 07:32:13;;;;;;;1.70;1.52;;;20.80;31.50;;;;;;5044049;28;20029;-55
2021/01/24 07:34:41;;;;;;;1.75;1.20;;;20.80;31.50;;;;;;5045675;28;20045;-55
2021/01/24 07:37:07;;;;;;;1.60;1.20;;;20.80;31.60;;;;;;5053736;28;20029;-52
2021/01/24 07:39:34;;;;;;;1.45;1.20;;;20.80;31.60;;;;;;5051576;28;20037;-55
2021/01/24 07:42:01;;;;;;;1.60;1.30;;;20.80;31.70;;;;;;5048196;28;20044;-47
2021/01/24 07:44:27;;;;;;;2.10;1.15;;;20.80;31.70;;;;;;5054847;28;20025;-57
2021/01/24 07:46:53;;;;;;;1.70;1.15;;;20.70;31.60;;;;;;5045872;28;20044;-54
2021/01/24 07:49:19;;;;;;;2.17;1.42;;;20.80;31.70;;;;;;5055764;28;20083;-54
2021/01/24 07:51:46;;;;;;;1.98;1.10;;;20.70;31.70;;;;;;5036323;28;20045;-55
2021/01/24 07:54:14;;;;;;;1.90;1.23;;;20.70;31.60;;;;;;5018755;28;20084;-56
2021/01/24 07:56:40;;;;;;;1.77;1.10;;;20.70;31.60;;;;;;5029176;28;20029;-55
2021/01/24 07:59:07;;;;;;;1.88;1.30;;;20.70;31.50;;;;;;5054889;28;20044;-54
2021/01/24 08:01:33;;;;;;;2.22;1.27;;;20.70;31.50;;;;;;5053521;28;20052;-53
2021/01/24 08:04:06;;;;;;;1.40;1.20;;;20.70;31.50;;;;;;5051502;28;20102;-52
2021/01/24 08:06:33;;;;;;;3.60;1.45;;;20.70;31.40;;;;;;5045607;28;20348;-56
2021/01/24 08:08:59;;;;;;;4.60;1.55;;;20.70;31.40;;;;;;5049151;28;20426;-54
2021/01/24 08:11:25;;;;;;;1.67;1.30;;;20.70;31.80;;;;;;5036525;28;20040;-57
2021/01/24 08:13:51;;;;;;;1.98;1.40;;;20.70;32.20;;;;;;5046345;28;20456;-56
2021/01/24 08:16:22;;;;;;;2.17;1.48;;;20.70;32.50;;;;;;5038376;28;20056;-55
2021/01/24 08:18:51;;;;;;;2.45;1.35;;;20.80;32.70;;;;;;5041938;28;20507;-57
2021/01/24 08:21:18;;;;;;;2.35;1.40;;;20.80;32.70;;;;;;5038087;28;20107;-56
2021/01/24 08:23:45;;;;;;;1.80;1.30;;;20.90;32.70;;;;;;5053288;28;20103;-53
2021/01/24 08:26:11;;;;;;;2.88;1.60;;;20.90;32.50;;;;;;5054529;28;20036;-54
2021/01/24 08:28:37;;;;;;;2.03;1.50;;;21.00;32.50;;;;;;5042516;28;20341;-53
2021/01/24 08:31:04;;;;;;;3.95;2.42;;;21.10;32.60;;;;;;5045785;28;20432;-57
2021/01/24 08:33:31;;;;;;;5.93;4.40;;;21.20;32.60;;;;;;5053666;28;20048;-55
2021/01/24 08:36:11;;;;;;;6.32;5.05;;;21.20;32.70;;;;;;5045582;28;20036;-57
2021/01/24 08:38:38;;;;;;;8.80;7.30;;;21.40;32.70;;;;;;5054443;28;20032;-54
2021/01/24 08:41:04;;;;;;;13.63;9.10;;;21.40;32.70;;;;;;5053794;28;20044;-55
2021/01/24 08:43:29;;;;;;;13.95;10.82;;;21.50;32.80;;;;;;5054483;28;20033;-56
2021/01/24 08:46:22;;;;;;;16.73;13.05;;;21.60;32.80;;;;;;5026516;28;20032;-56
2021/01/24 08:49:18;;;;;;;17.08;14.43;;;21.70;32.90;;;;;;5054317;28;20070;-56
2021/01/24 08:52:00;;;;;;;21.08;16.38;;;21.80;32.90;;;;;;5051899;28;20032;-55
2021/01/24 08:54:34;;;;;;;20.23;15.70;;;22.00;33.00;;;;;;5054644;28;20526;-53
2021/01/24 08:57:13;;;;;;;20.20;14.73;;;22.00;32.90;;;;;;5054444;28;20036;-50
2021/01/24 08:59:57;;;;;;;18.40;13.80;;;22.20;32.80;;;;;;5054136;28;20032;-51
2021/01/24 09:02:31;;;;;;;15.45;12.70;;;22.30;32.60;;;;;;5054424;28;20044;-51
2021/01/24 09:04:57;;;;;;;16.35;12.95;;;22.40;32.50;;;;;;5052893;28;20021;-52
2021/01/24 09:07:34;;;;;;;15.23;11.63;;;22.40;32.30;;;;;;5036069;28;20033;-55
2021/01/24 09:10:15;;;;;;;14.23;10.68;;;22.50;32.10;;;;;;5038854;28;20107;-54
2021/01/24 09:12:47;;;;;;;11.95;9.60;;;22.70;32.00;;;;;;5053782;28;20055;-51
2021/01/24 09:15:13;;;;;;;10.00;8.20;;;22.80;31.70;;;;;;5054332;28;20028;-51
2021/01/24 09:17:39;;;;;;;11.95;8.25;;;22.90;31.40;;;;;;5053399;28;20102;-48
2021/01/24 09:20:05;;;;;;;12.00;8.60;;;23.00;31.30;;;;;;5049771;28;20025;-46
2021/01/24 09:22:31;;;;;;;10.95;7.95;;;23.00;31.20;;;;;;5054095;28;20497;-52
2021/01/24 09:24:57;;;;;;;11.23;8.27;;;23.10;31.10;;;;;;5053896;28;20033;-48
2021/01/24 09:27:22;;;;;;;11.57;7.72;;;23.10;31.10;;;;;;5054246;28;20775;-48
2021/01/24 09:29:48;;;;;;;8.98;7.13;;;23.20;31.00;;;;;;5054008;28;20456;-48
2021/01/24 09:32:14;;;;;;;10.63;7.60;;;23.20;30.90;;;;;;5036249;28;20341;-46
2021/01/24 09:34:40;;;;;;;10.30;7.30;;;23.20;30.80;;;;;;5050800;28;20037;-45
2021/01/24 09:37:05;;;;;;;9.77;6.65;;;23.30;30.80;;;;;;5017390;28;20047;-49
2021/01/24 09:39:31;;;;;;;8.95;6.97;;;23.30;30.70;;;;;;5053418;28;20064;-49
2021/01/24 09:41:57;;;;;;;8.95;6.65;;;23.30;30.70;;;;;;5036575;28;20028;-48
2021/01/24 09:44:23;;;;;;;8.23;5.82;;;23.40;30.70;;;;;;5031160;28;20440;-48
2021/01/24 09:46:49;;;;;;;9.55;6.30;;;23.40;30.60;;;;;;5054322;28;20036;-50
2021/01/24 09:49:14;;;;;;;8.52;6.25;;;23.40;30.50;;;;;;5053796;28;20025;-48
2021/01/24 09:51:40;;;;;;;9.05;5.80;;;23.40;30.50;;;;;;5054246;28;20039;-53
2021/01/24 09:54:06;;;;;;;7.47;5.85;;;23.50;30.40;;;;;;5053072;28;20355;-52
2021/01/24 09:56:32;;;;;;;8.57;5.82;;;23.50;30.40;;;;;;5054312;28;20128;-51
2021/01/24 09:58:58;;;;;;;7.97;6.28;;;23.50;30.30;;;;;;5053609;28;20033;-50
2021/01/24 10:01:25;;;;;;;7.55;5.80;;;23.50;30.20;;;;;;5036218;28;20033;-51
2021/01/24 10:03:51;;;;;;;7.00;5.82;;;23.50;30.10;;;;;;5053567;28;20033;-51
2021/01/24 10:06:19;;;;;;;6.80;5.00;;;23.50;30.00;;;;;;5053980;28;20039;-48
2021/01/24 10:08:45;;;;;;;7.05;5.47;;;23.50;30.00;;;;;;5053088;28;20039;-48
2021/01/24 10:11:11;;;;;;;5.50;4.38;;;23.50;30.00;;;;;;5054123;28;20032;-46
2021/01/24 10:13:38;;;;;;;6.72;4.95;;;23.50;29.90;;;;;;5052556;28;20044;-50
2021/01/24 10:16:04;;;;;;;6.43;4.80;;;23.50;29.90;;;;;;5037428;28;20113;-52
2021/01/24 10:18:29;;;;;;;5.60;4.65;;;23.50;29.80;;;;;;5054058;28;20095;-52
2021/01/24 10:20:55;;;;;;;6.47;4.78;;;23.50;29.80;;;;;;5053494;28;20032;-50
2021/01/24 10:23:21;;;;;;;6.07;4.82;;;23.50;29.80;;;;;;5053688;28;20368;-50
2021/01/24 10:25:57;;;;;;;7.45;5.47;;;23.50;29.80;;;;;;5053785;28;20344;-53
2021/01/24 10:28:23;;;;;;;6.70;5.13;;;23.50;29.90;;;;;;5048998;28;20467;-49
2021/01/24 10:30:51;;;;;;;7.07;5.20;;;23.50;29.90;;;;;;5034206;28;20041;-50
2021/01/24 10:33:16;;;;;;;8.85;5.10;;;23.50;30.00;;;;;;5052989;28;20578;-47
2021/01/24 10:35:43;;;;;;;6.63;4.82;;;23.50;30.00;;;;;;5053252;28;20104;-47
2021/01/24 10:38:09;;;;;;;6.57;5.28;;;23.50;30.00;;;;;;5053172;28;20459;-46
2021/01/24 10:40:35;;;;;;;8.57;5.90;;;23.50;30.00;;;;;;5053392;28;20033;-50
2021/01/24 10:43:05;;;;;;;6.57;5.00;;;23.50;30.00;;;;;;5051871;28;20463;-51
2021/01/24 10:45:32;;;;;;;5.25;4.25;;;23.50;30.10;;;;;;5049005;28;20025;-48
2021/01/24 10:47:59;;;;;;;7.13;5.13;;;23.50;30.20;;;;;;5048439;28;20515;-47
2021/01/24 10:50:27;;;;;;;6.80;4.50;;;23.50;30.20;;;;;;5053415;28;20116;-50
2021/01/24 10:52:53;;;;;;;6.25;4.60;;;23.50;30.10;;;;;;5053787;28;20348;-50
2021/01/24 10:55:19;;;;;;;6.68;4.95;;;23.50;30.10;;;;;;5052664;28;20025;-53
2021/01/24 10:57:45;;;;;;;6.13;4.43;;;23.60;30.20;;;;;;5050379;28;20033;-49
2021/01/24 11:00:11;;;;;;;6.65;5.53;;;23.50;30.20;;;;;;5053907;28;20028;-59
2021/01/24 11:02:36;;;;;;;3.05;2.10;;;23.60;31.30;;;;;;5047621;28;20444;-62
2021/01/24 11:05:04;;;;;;;3.53;2.05;;;23.50;28.10;;;;;;5052911;28;20025;-51
2021/01/24 11:07:30;;;;;;;7.18;5.18;;;23.30;27.90;;;;;;5047835;28;20033;-46
2021/01/24 11:09:55;;;;;;;14.68;7.43;;;23.20;29.00;;;;;;5055695;28;20025;-60
2021/01/24 11:12:22;;;;;;;11.23;7.90;;;23.20;30.40;;;;;;5055378;28;20120;-53
2021/01/24 11:14:49;;;;;;;12.48;7.60;;;23.20;31.90;;;;;;5038443;28;20479;-51
2021/01/24 11:17:15;;;;;;;12.10;7.60;;;23.30;32.90;;;;;;5055862;28;20036;-56
2021/01/24 11:19:41;;;;;;;12.82;8.20;;;23.30;33.90;;;;;;5056085;28;20033;-52
2021/01/24 11:22:07;;;;;;;12.27;7.50;;;23.30;34.90;;;;;;5055700;28;20029;-56
2021/01/24 11:24:32;;;;;;;11.77;7.80;;;23.40;35.90;;;;;;5055817;28;20124;-51
2021/01/24 11:26:58;;;;;;;14.90;8.73;;;23.50;36.50;;;;;;5043993;28;20029;-50
2021/01/24 11:29:24;;;;;;;17.40;9.73;;;23.50;37.30;;;;;;5056279;28;20040;-57
2021/01/24 11:31:51;;;;;;;17.55;10.20;;;23.60;38.40;;;;;;5050179;28;20029;-52
2021/01/24 11:34:17;;;;;;;15.18;9.48;;;23.60;39.20;;;;;;5044910;28;20040;-52
2021/01/24 11:36:43;;;;;;;17.33;10.40;;;23.60;39.60;;;;;;5036328;28;20032;-57
2021/01/24 11:39:12;;;;;;;18.45;10.35;;;23.70;40.00;;;;;;5053572;28;20047;-58
2021/01/24 11:41:38;;;;;;;16.00;10.30;;;23.80;40.40;;;;;;5051695;28;20025;-56
2021/01/24 11:44:03;;;;;;;17.55;11.40;;;23.90;40.70;;;;;;5034140;28;20115;-53
2021/01/24 11:46:29;;;;;;;17.17;11.50;;;23.90;40.70;;;;;;5047906;28;20108;-55
2021/01/24 11:48:55;;;;;;;17.75;11.68;;;24.00;40.70;;;;;;5048649;28;20017;-57
2021/01/24 11:51:21;;;;;;;16.88;10.15;;;24.00;40.70;;;;;;5054168;28;20025;-58
2021/01/24 11:53:47;;;;;;;13.57;9.35;;;24.00;40.30;;;;;;5048613;28;20072;-51
2021/01/24 11:56:14;;;;;;;13.30;8.65;;;24.10;39.70;;;;;;5055853;28;20118;-56
2021/01/24 11:58:40;;;;;;;8.90;6.07;;;24.10;38.90;;;;;;5053673;28;20455;-57
2021/01/24 12:01:05;;;;;;;10.45;6.15;;;24.20;36.00;;;;;;5051351;28;20056;-62
2021/01/24 12:03:31;;;;;;;8.68;5.63;;;24.20;35.60;;;;;;5050926;28;20488;-60
2021/01/24 12:05:57;;;;;;;6.68;4.28;;;24.20;35.60;;;;;;5048731;28;20163;-55
2021/01/24 12:08:23;;;;;;;8.95;4.78;;;24.20;35.30;;;;;;5052622;28;20138;-51
2021/01/24 12:10:49;;;;;;;7.28;4.75;;;24.20;35.00;;;;;;5047552;28;20445;-53
2021/01/24 12:13:14;;;;;;;6.53;4.22;;;24.30;34.70;;;;;;5053012;28;20448;-57
2021/01/24 12:15:40;;;;;;;7.03;3.45;;;24.30;34.50;;;;;;5050208;28;20083;-65
2021/01/24 12:18:06;;;;;;;5.70;3.30;;;24.30;31.10;;;;;;5048322;28;20359;-51
2021/01/24 12:20:32;;;;;;;7.35;2.80;;;24.20;29.10;;;;;;5027223;28;20094;-61
2021/01/24 12:22:58;;;;;;;3.90;2.63;;;24.00;29.90;;;;;;5045390;28;20044;-50
2021/01/24 12:25:23;;;;;;;3.45;2.15;;;23.90;30.60;;;;;;5026992;28;20029;-52
2021/01/24 12:27:49;;;;;;;3.47;2.25;;;23.90;31.30;;;;;;5030018;28;20364;-51
2021/01/24 12:30:15;;;;;;;3.90;2.40;;;23.90;31.60;;;;;;5053570;28;20438;-49
2021/01/24 12:32:41;;;;;;;3.20;1.98;;;23.90;31.70;;;;;;5039271;28;20029;-53
2021/01/24 12:35:09;;;;;;;5.22;2.60;;;24.00;31.80;;;;;;5053378;28;20383;-56
2021/01/24 12:37:35;;;;;;;3.72;2.17;;;24.00;31.70;;;;;;5045111;28;20075;-49
2021/01/24 12:40:03;;;;;;;4.70;2.40;;;24.00;31.70;;;;;;5029322;28;20048;-48
2021/01/24 12:42:29;;;;;;;3.63;2.13;;;24.10;31.70;;;;;;5042357;28;20119;-50
2021/01/24 12:44:54;;;;;;;4.85;2.17;;;24.10;31.70;;;;;;5043289;28;20062;-48
2021/01/24 12:47:20;;;;;;;3.72;1.95;;;24.10;31.60;;;;;;5042278;28;20021;-48